Day Rural, Kentucky
Current Conditions -  °F | °C
As of 1:55 PM on Tuesday 27 Jan 2015 (Local Time) from KLNP Reporting Station
Broken Clouds Broken Clouds  
Wind Chill: 24°   Ceiling: 2300
Heat Index: 32°   Visibility: 10mi
Dew Point: 19°   Wind: 10mph
Humidity: 60%   Direction: 280°W
Pressure: 29.88"   Gusts: NA
Location:  37.1283°N, 82.8498°W
Report Text: KLNP 271855Z AUTO 28009KT 10SM BKN023 00/M07 A2988 RMK AO2
Loading
Personal Weather Stations






























Interactive Weather Map New forecast layout! Learn more

10-Day Weather Forecast

Advertisements
Track Severe Weather on mobile